Terminal Aerodrome Forecast
Issued by NWS

Home | Current Version | Previous Version | Text Only | Print | Product List | Glossary Off
Versions: 1 2 3 4 5 6 7 8 9 10 11 12 13 14 15

757
FTUS43 KICT 111338 AAA
TAFRSL
TAF AMD
KRSL 111338Z 1114/1212 03009KT P6SM BKN008
     FM111800 11005KT P6SM SCT008 BKN015
     FM112000 16005KT P6SM SCT250
     FM120400 22007KT P6SM SCT200
     FM120800 27007KT P6SM SCT200=

USA.gov is the U.S. government's official web portal to all federal, state and local government web resources and services.